createdAt,value
2022-10-12T00:06:51.679Z,38.1
2022-10-12T00:12:04.634Z,43.2
2022-10-12T00:17:16.222Z,42.8
2022-10-12T00:22:28.490Z,33.7
2022-10-12T00:27:44.569Z,44.9
2022-10-12T00:32:57.098Z,40.6
2022-10-12T00:38:13.633Z,46.1
2022-10-12T00:43:26.230Z,50.3
2022-10-12T00:48:41.714Z,43.9
2022-10-12T00:53:54.362Z,43.3
2022-10-12T00:59:06.327Z,47.3
2022-10-12T01:04:17.204Z,35.5
2022-10-12T01:09:29.200Z,39.2
2022-10-12T01:14:42.352Z,43.8
2022-10-12T01:19:57.453Z,38.8
2022-10-12T01:25:06.210Z,40
2022-10-12T01:30:18.160Z,43.9
2022-10-12T01:46:13.009Z,44.3
2022-10-12T01:51:27.815Z,35.4
2022-10-12T01:56:40.085Z,41.3
2022-10-12T02:01:55.555Z,33.8
2022-10-12T02:07:08.084Z,42
2022-10-12T02:12:23.990Z,34
2022-10-12T02:22:58.369Z,36.3
2022-10-12T02:28:08.991Z,31.2
2022-10-12T02:38:45.151Z,35.3
2022-10-12T02:43:55.085Z,35.3
2022-10-12T02:49:07.413Z,33.5
2022-10-12T02:54:19.333Z,32.9
2022-10-12T02:59:31.825Z,33.9
2022-10-12T03:10:05.456Z,38.1
2022-10-12T03:26:01.807Z,34.5
2022-10-12T03:41:58.521Z,42.7
2022-10-12T03:47:10.213Z,39.5
2022-10-12T03:52:22.575Z,36.6
2022-10-12T04:02:55.857Z,37.2
2022-10-12T04:13:29.392Z,43.2
2022-10-12T04:18:41.945Z,44.4
2022-10-12T04:23:53.676Z,44.7
2022-10-12T04:29:06.191Z,45.9
2022-10-12T04:34:19.111Z,45.3
2022-10-12T04:44:59.755Z,51.8
2022-10-12T04:55:33.570Z,47.4
2022-10-12T05:06:06.872Z,53.1
2022-10-12T05:11:17.972Z,53.4
2022-10-12T05:16:30.254Z,67.2
2022-10-12T05:21:42.241Z,50.7
2022-10-12T05:32:16.439Z,62.9
2022-10-12T05:37:28.652Z,66.9
2022-10-12T05:48:02.030Z,64.3
2022-10-12T05:58:40.417Z,75.4
2022-10-12T06:03:53.444Z,63.8
2022-10-12T06:09:07.721Z,54.2
2022-10-12T06:14:21.229Z,53.7
2022-10-12T06:19:38.152Z,61.6
2022-10-12T06:24:54.275Z,71
2022-10-12T06:30:09.712Z,58
2022-10-12T06:40:44.101Z,60.6
2022-10-12T06:46:00.166Z,68.5
2022-10-12T06:51:10.957Z,58.9
2022-10-12T06:56:26.680Z,50.3
2022-10-12T07:01:43.529Z,60
2022-10-12T07:06:56.369Z,55.5
2022-10-12T07:17:29.206Z,51
2022-10-12T07:22:41.503Z,40.3
2022-10-12T07:27:54.132Z,32.6
2022-10-12T07:33:06.146Z,33.3
2022-10-12T07:38:16.666Z,22
2022-10-12T07:43:28.789Z,22
2022-10-12T07:48:45.847Z,21.1
2022-10-12T07:53:52.896Z,23
2022-10-12T07:59:05.021Z,21.8
2022-10-12T08:04:17.233Z,19.7
2022-10-12T08:09:30.053Z,21.5
2022-10-12T08:14:40.714Z,17.1
2022-10-12T08:19:52.937Z,20.9
2022-10-12T08:30:39.382Z,13.7
2022-10-12T08:35:43.604Z,19.3
2022-10-12T08:46:15.880Z,22.2
2022-10-12T08:51:33.017Z,33.3
2022-10-12T08:56:49.389Z,17.8
2022-10-12T09:02:06.281Z,20.9
2022-10-12T09:07:18.279Z,16.8
2022-10-12T09:17:50.621Z,21.2
2022-10-12T09:23:07.731Z,16
2022-10-12T09:28:20.760Z,18.2
2022-10-12T09:33:36.438Z,26.6
2022-10-12T09:38:51.911Z,22.3
2022-10-12T09:49:25.216Z,24.8
2022-10-12T09:54:37.555Z,18.2
2022-10-12T09:59:54.046Z,22
2022-10-12T10:05:06.675Z,18.7
2022-10-12T10:10:30.348Z,22.2
2022-10-12T10:15:39.590Z,18.7
2022-10-12T10:26:12.788Z,19.9
2022-10-12T10:36:46.237Z,20.7
2022-10-12T10:52:45.562Z,15.5
2022-10-12T10:57:57.250Z,15.5
2022-10-12T11:19:14.115Z,15.9
2022-10-12T11:24:32.298Z,12.8
2022-10-12T11:35:09.388Z,12.8
2022-10-12T11:40:26.992Z,14.1
2022-10-12T11:51:10.548Z,18.7
2022-10-12T11:56:21.267Z,13.2
2022-10-12T12:01:40.572Z,14
2022-10-12T12:12:25.908Z,10.4
2022-10-12T12:23:04.627Z,16
2022-10-12T12:28:23.877Z,8.5
2022-10-12T12:33:52.029Z,15.1
2022-10-12T12:38:59.609Z,11.7
2022-10-12T12:59:49.767Z,10.6
2022-10-12T13:04:56.266Z,8.4
2022-10-12T13:15:32.372Z,10.3
2022-10-12T13:26:05.798Z,11.3
2022-10-12T13:31:14.629Z,9.3
2022-10-12T13:36:24.961Z,9.6
2022-10-12T13:41:34.307Z,9.9
2022-10-12T13:46:47.721Z,10.7
2022-10-12T13:52:04.242Z,11.2
2022-10-12T13:57:22.267Z,8.8
2022-10-12T14:02:32.648Z,7.1
2022-10-12T14:07:45.970Z,10.1
2022-10-12T14:13:09.891Z,11
2022-10-12T14:18:24.985Z,7.9
2022-10-12T14:23:37.352Z,12.2
2022-10-12T14:28:49.821Z,9.7
2022-10-12T14:39:38.529Z,14.3
2022-10-12T14:44:49.967Z,10.7
2022-10-12T14:50:11.102Z,14.2
2022-10-12T15:00:46.952Z,8.8
2022-10-12T15:11:18.563Z,12.3
2022-10-12T15:16:31.365Z,14.2
2022-10-12T15:32:24.396Z,13.7
2022-10-12T15:42:55.788Z,17.4
2022-10-12T15:53:28.553Z,18.2
2022-10-12T16:04:03.423Z,21.4
2022-10-12T16:09:15.257Z,22.3
2022-10-12T16:14:26.055Z,17
2022-10-12T16:19:41.145Z,22.2
2022-10-12T16:24:53.891Z,17.7
2022-10-12T16:30:08.131Z,24.1
2022-10-12T16:35:23.796Z,19
2022-10-12T16:45:57.263Z,17
2022-10-12T16:51:12.845Z,27.3
2022-10-12T16:56:30.163Z,23.8
2022-10-12T17:01:42.228Z,20.6
2022-10-12T17:06:56.275Z,26.2
2022-10-12T17:22:52.131Z,21.7
2022-10-12T17:28:05.609Z,33.5
2022-10-12T17:33:21.296Z,93.4
2022-10-12T17:38:37.013Z,32.3
2022-10-12T17:43:48.190Z,25.9
2022-10-12T17:49:05.168Z,22.3
2022-10-12T17:54:21.334Z,28.3
2022-10-12T18:04:55.206Z,26.6
2022-10-12T18:15:31.551Z,32.1
2022-10-12T18:20:50.005Z,28.4
2022-10-12T18:25:59.719Z,29.7
2022-10-12T18:31:16.483Z,28.8
2022-10-12T18:47:07.992Z,21.1
2022-10-12T18:57:45.196Z,26.2
2022-10-12T19:03:02.980Z,30.4
2022-10-12T19:08:13.507Z,28.6
2022-10-12T19:24:09.665Z,31.2
2022-10-12T19:29:21.267Z,31.5
2022-10-12T19:34:32.773Z,27.7
2022-10-12T19:39:45.425Z,28.3
2022-10-12T19:44:58.654Z,26.4
2022-10-12T19:50:09.809Z,35.4
2022-10-12T19:55:22.589Z,25.6
2022-10-12T20:00:35.002Z,24.1
2022-10-12T20:05:51.088Z,24.5
2022-10-12T20:10:57.725Z,25.6
2022-10-12T20:16:09.420Z,30.5
2022-10-12T20:21:23.629Z,28
2022-10-12T20:26:32.447Z,29.7
2022-10-12T20:31:43.826Z,17.2
2022-10-12T20:36:54.957Z,21.1
2022-10-12T20:42:11.476Z,18.5
2022-10-12T20:47:21.457Z,17.6
2022-10-12T20:58:00.634Z,11.5
2022-10-12T21:03:13.816Z,13.7
2022-10-12T21:08:27.369Z,13.8
2022-10-12T21:13:38.684Z,24.9
2022-10-12T21:18:55.518Z,19.2
2022-10-12T21:34:51.262Z,15.1
2022-10-12T21:40:03.627Z,14.8
2022-10-12T21:45:19.744Z,22.1
2022-10-12T21:50:30.121Z,16.6
2022-10-12T21:55:42.554Z,20.8
2022-10-12T22:06:14.513Z,18
2022-10-12T22:27:30.417Z,19.1
2022-10-12T22:38:08.370Z,22.4
2022-10-12T22:48:42.047Z,14.1
2022-10-12T22:53:55.215Z,20.4
2022-10-12T22:59:12.956Z,14.1
2022-10-12T23:04:25.397Z,16.6
2022-10-12T23:09:37.108Z,25.7
2022-10-12T23:14:49.796Z,23.7
2022-10-12T23:25:21.629Z,14.9
2022-10-12T23:30:34.681Z,17.5
2022-10-12T23:35:46.652Z,19.9
2022-10-12T23:46:18.553Z,18
2022-10-12T23:51:30.208Z,25.2
2022-10-12T23:56:43.049Z,18.3
